Time;durP1;ratioP1;P1;durP2;ratioP2;P2;SDS_P1;SDS_P2;PMS_P1;PMS_P2;Temp;Humidity;BMP_temperature;BMP_pressure;BME280_temperature;BME280_humidity;BME280_pressure;Samples;Min_cycle;Max_cycle;Signal;HPM_P1;HPM_P2
2021/09/03 00:01:07;;;;;;;15.17;10.50;;;15.40;99.90;;;;;;5057430;28;20614;-66
2021/09/03 00:03:34;;;;;;;11.00;9.67;;;15.30;99.90;;;;;;5058108;28;21050;-66
2021/09/03 00:06:00;;;;;;;18.93;10.30;;;15.30;99.90;;;;;;5057198;28;20614;-66
2021/09/03 00:08:26;;;;;;;11.40;10.20;;;15.30;99.90;;;;;;5057091;28;20601;-66
2021/09/03 00:10:53;;;;;;;10.67;9.30;;;15.30;99.90;;;;;;5057073;28;20659;-66
2021/09/03 00:13:19;;;;;;;11.20;10.10;;;15.20;99.90;;;;;;5057563;28;20589;-66
2021/09/03 00:15:46;;;;;;;9.67;8.73;;;15.20;99.90;;;;;;5057824;28;20638;-66
2021/09/03 00:18:12;;;;;;;12.57;11.23;;;15.20;99.90;;;;;;5055392;28;20625;-66
2021/09/03 00:20:38;;;;;;;13.00;9.93;;;15.20;99.90;;;;;;5057267;28;20629;-66
2021/09/03 00:23:05;;;;;;;10.87;9.63;;;15.10;99.90;;;;;;5057153;28;20610;-66
2021/09/03 00:25:31;;;;;;;12.33;11.07;;;15.10;99.90;;;;;;5057018;28;20962;-66
2021/09/03 00:27:57;;;;;;;16.23;10.20;;;15.10;99.90;;;;;;5056984;28;20598;-66
2021/09/03 00:30:24;;;;;;;12.17;9.60;;;15.10;99.90;;;;;;5056676;28;21206;-66
2021/09/03 00:32:50;;;;;;;10.60;9.10;;;15.00;99.90;;;;;;5056420;28;20615;-66
2021/09/03 00:35:16;;;;;;;11.90;10.23;;;15.00;99.90;;;;;;5056565;28;20618;-66
2021/09/03 00:37:43;;;;;;;12.30;9.93;;;15.00;99.90;;;;;;5056633;28;20591;-66
2021/09/03 00:40:10;;;;;;;11.97;10.77;;;14.90;99.90;;;;;;5056623;28;20637;-66
2021/09/03 00:42:38;;;;;;;10.77;9.80;;;14.90;99.90;;;;;;5056023;28;21189;-66
2021/09/03 00:45:05;;;;;;;12.90;10.60;;;14.90;99.90;;;;;;5056292;28;20672;-66
2021/09/03 00:47:32;;;;;;;11.90;10.30;;;14.80;99.90;;;;;;5056313;28;20649;-66
2021/09/03 00:49:58;;;;;;;12.50;10.10;;;14.80;99.90;;;;;;5057034;28;20995;-66
2021/09/03 00:52:25;;;;;;;11.80;10.60;;;14.70;99.90;;;;;;5056500;28;20607;-66
2021/09/03 00:54:56;;;;;;;12.27;10.10;;;14.70;99.90;;;;;;5056386;28;20626;-66
2021/09/03 00:57:24;;;;;;;14.60;9.77;;;14.70;99.90;;;;;;5056629;28;20586;-66
2021/09/03 00:59:53;;;;;;;14.50;9.77;;;14.60;99.90;;;;;;5057005;28;20623;-66
2021/09/03 01:02:23;;;;;;;12.87;10.50;;;14.60;99.90;;;;;;5056273;28;20622;-66
2021/09/03 01:04:50;;;;;;;16.57;10.00;;;14.60;99.90;;;;;;5056034;28;20673;-66
2021/09/03 01:07:17;;;;;;;11.13;10.03;;;14.50;99.90;;;;;;5055995;28;20623;-66
2021/09/03 01:09:43;;;;;;;12.30;10.40;;;14.50;99.90;;;;;;5056395;28;20653;-66
2021/09/03 01:12:09;;;;;;;12.93;11.00;;;14.50;99.90;;;;;;5056402;28;21172;-66
2021/09/03 01:14:36;;;;;;;14.70;11.30;;;14.40;99.90;;;;;;5056316;28;20630;-66
2021/09/03 01:17:04;;;;;;;11.40;10.27;;;14.40;99.90;;;;;;5056425;28;20623;-66
2021/09/03 01:19:31;;;;;;;13.70;10.57;;;14.20;99.90;;;;;;5055947;28;20634;-66
2021/09/03 01:21:58;;;;;;;12.70;10.30;;;14.30;99.90;;;;;;5055485;28;20585;-66
2021/09/03 01:24:24;;;;;;;11.77;10.60;;;14.20;99.90;;;;;;5055925;28;20626;-66
2021/09/03 01:26:51;;;;;;;11.83;10.63;;;14.20;99.90;;;;;;5055764;28;20590;-66
2021/09/03 01:29:17;;;;;;;20.07;10.17;;;14.20;99.90;;;;;;5055948;28;20598;-66
2021/09/03 01:31:43;;;;;;;14.40;11.47;;;14.30;99.90;;;;;;5055875;28;20662;-66
2021/09/03 01:34:11;;;;;;;13.03;9.40;;;14.30;99.90;;;;;;5056157;28;20622;-66
2021/09/03 01:36:37;;;;;;;11.93;9.80;;;14.30;99.90;;;;;;5055535;28;20611;-66
2021/09/03 01:39:04;;;;;;;11.67;10.07;;;14.30;99.90;;;;;;5055834;28;21149;-66
2021/09/03 01:41:31;;;;;;;10.90;9.77;;;14.30;99.90;;;;;;5055186;28;20649;-66
2021/09/03 01:43:58;;;;;;;12.13;9.47;;;14.40;99.90;;;;;;5055438;28;21149;-66
2021/09/03 01:46:24;;;;;;;11.23;10.10;;;14.50;99.90;;;;;;5055594;28;20595;-66
2021/09/03 01:48:50;;;;;;;14.83;10.17;;;14.40;99.90;;;;;;5055380;28;20623;-66
2021/09/03 01:51:16;;;;;;;12.93;11.17;;;14.40;99.90;;;;;;5055442;28;20730;-66
2021/09/03 01:53:43;;;;;;;11.17;9.57;;;14.40;99.90;;;;;;5055406;28;20642;-66
2021/09/03 01:56:09;;;;;;;11.17;9.60;;;14.30;99.90;;;;;;5055386;28;20623;-66
2021/09/03 01:58:36;;;;;;;11.03;9.77;;;14.20;99.90;;;;;;5055657;28;20989;-66
2021/09/03 02:01:02;;;;;;;12.00;9.83;;;14.20;99.90;;;;;;5055084;28;20609;-66
2021/09/03 02:03:29;;;;;;;13.57;10.03;;;14.20;99.90;;;;;;5055018;28;20591;-66
2021/09/03 02:05:58;;;;;;;12.77;10.30;;;14.10;99.90;;;;;;5054806;28;20615;-66
2021/09/03 02:08:25;;;;;;;14.13;11.27;;;14.10;99.90;;;;;;5055335;28;20626;-66
2021/09/03 02:10:51;;;;;;;11.50;9.60;;;14.10;99.90;;;;;;5055076;28;20659;-66
2021/09/03 02:13:18;;;;;;;12.83;10.70;;;14.10;99.90;;;;;;5054992;28;20705;-66
2021/09/03 02:15:44;;;;;;;11.63;10.43;;;14.00;99.90;;;;;;5054218;28;20610;-66
2021/09/03 02:18:11;;;;;;;11.37;10.27;;;14.00;99.90;;;;;;5054298;28;20615;-66
2021/09/03 02:20:37;;;;;;;14.00;11.17;;;13.90;99.90;;;;;;5054659;28;20599;-66
2021/09/03 02:23:03;;;;;;;12.37;9.87;;;13.90;99.90;;;;;;5054798;28;20634;-66
2021/09/03 02:25:30;;;;;;;12.00;10.10;;;13.90;99.90;;;;;;5053876;28;20662;-66
2021/09/03 02:27:56;;;;;;;13.00;10.37;;;13.90;99.90;;;;;;5054337;28;20618;-66
2021/09/03 02:30:22;;;;;;;12.90;9.30;;;13.80;99.90;;;;;;5054454;28;21181;-66
2021/09/03 02:32:49;;;;;;;13.20;9.77;;;13.90;99.90;;;;;;5054476;28;20591;-66
2021/09/03 02:35:16;;;;;;;11.13;9.90;;;13.90;99.90;;;;;;5055144;28;20968;-66
2021/09/03 02:37:42;;;;;;;11.93;10.60;;;13.90;99.90;;;;;;5054255;28;20614;-66
2021/09/03 02:40:09;;;;;;;11.70;10.50;;;13.80;99.90;;;;;;5054293;28;21141;-66
2021/09/03 02:42:35;;;;;;;11.73;10.50;;;13.80;99.90;;;;;;5054149;28;20630;-66
2021/09/03 02:45:05;;;;;;;15.10;12.17;;;13.80;99.90;;;;;;5054328;28;20669;-66
2021/09/03 02:47:34;;;;;;;12.40;10.17;;;13.80;99.90;;;;;;5054608;28;20633;-66
2021/09/03 02:50:02;;;;;;;13.00;10.80;;;13.80;99.90;;;;;;5054495;28;20629;-66
2021/09/03 02:52:28;;;;;;;11.70;10.50;;;13.70;99.90;;;;;;5054369;28;21150;-66
2021/09/03 02:54:55;;;;;;;11.90;10.27;;;13.70;99.90;;;;;;5053081;28;20634;-66
2021/09/03 02:57:21;;;;;;;13.57;9.97;;;13.60;99.90;;;;;;5053908;28;20588;-66
2021/09/03 02:59:47;;;;;;;11.60;9.80;;;13.60;99.90;;;;;;5053906;28;21146;-66
2021/09/03 03:02:15;;;;;;;10.57;9.50;;;13.60;99.90;;;;;;5053836;28;21012;-66
2021/09/03 03:04:41;;;;;;;14.23;11.27;;;13.60;99.90;;;;;;5054051;28;20611;-66
2021/09/03 03:07:07;;;;;;;19.47;10.50;;;13.60;99.90;;;;;;5052837;28;20611;-66
2021/09/03 03:09:37;;;;;;;11.90;9.17;;;13.60;99.90;;;;;;5053699;28;20710;-66
2021/09/03 03:12:03;;;;;;;11.13;9.20;;;13.60;99.90;;;;;;5053436;28;20666;-66
2021/09/03 03:14:33;;;;;;;14.95;9.70;;;13.50;99.90;;;;;;5053485;28;20607;-66
2021/09/03 03:17:03;;;;;;;12.20;9.97;;;13.50;99.90;;;;;;5054087;28;20204;-66
2021/09/03 03:19:30;;;;;;;11.40;10.20;;;13.50;99.90;;;;;;5053615;28;20594;-66
2021/09/03 03:21:57;;;;;;;13.40;9.83;;;13.50;99.90;;;;;;5054056;28;20631;-66
2021/09/03 03:24:23;;;;;;;10.47;9.40;;;13.60;99.90;;;;;;5053668;28;20611;-66
2021/09/03 03:26:50;;;;;;;12.40;9.90;;;13.60;99.90;;;;;;5053432;28;20576;-66
2021/09/03 03:29:16;;;;;;;10.60;9.50;;;13.60;99.90;;;;;;5053434;28;20598;-66
2021/09/03 03:31:43;;;;;;;12.03;10.77;;;13.50;99.90;;;;;;5053458;28;20941;-66
2021/09/03 03:34:11;;;;;;;11.43;10.17;;;13.50;99.90;;;;;;5053391;28;20611;-66
2021/09/03 03:36:38;;;;;;;12.17;10.30;;;13.50;99.90;;;;;;5053574;28;20630;-66
2021/09/03 03:39:05;;;;;;;10.53;9.50;;;13.50;99.90;;;;;;5053061;28;20981;-66
2021/09/03 03:41:31;;;;;;;13.23;10.90;;;13.50;99.90;;;;;;5053553;28;20654;-66
2021/09/03 03:43:58;;;;;;;12.20;9.77;;;13.50;99.90;;;;;;5053497;28;20554;-66
2021/09/03 03:46:24;;;;;;;10.97;9.90;;;13.50;99.90;;;;;;5053231;28;20623;-66
2021/09/03 03:48:51;;;;;;;12.13;10.83;;;13.50;99.90;;;;;;5053154;28;20643;-66
2021/09/03 03:51:17;;;;;;;13.57;10.70;;;13.50;99.90;;;;;;5053745;28;21204;-66
2021/09/03 03:53:43;;;;;;;13.17;11.10;;;13.50;99.90;;;;;;5053165;28;20942;-66
2021/09/03 03:56:10;;;;;;;13.03;11.50;;;13.40;99.90;;;;;;5053509;28;20615;-66
2021/09/03 03:58:36;;;;;;;10.60;9.50;;;13.30;99.90;;;;;;5053571;28;20709;-66
2021/09/03 04:01:04;;;;;;;14.50;11.37;;;13.20;99.90;;;;;;5053268;28;20983;-66
2021/09/03 04:03:31;;;;;;;12.63;11.33;;;13.10;99.90;;;;;;5053298;28;20587;-66
2021/09/03 04:05:57;;;;;;;13.07;11.60;;;13.10;99.90;;;;;;5053356;28;20614;-66
2021/09/03 04:08:23;;;;;;;11.57;10.00;;;13.10;99.90;;;;;;5052545;28;20641;-66
2021/09/03 04:10:50;;;;;;;15.82;12.30;;;13.10;99.90;;;;;;5053068;28;20639;-66
2021/09/03 04:13:16;;;;;;;15.37;11.70;;;13.00;99.90;;;;;;5053175;28;20206;-66
2021/09/03 04:15:42;;;;;;;12.43;11.13;;;13.00;99.90;;;;;;5053430;28;21167;-66
2021/09/03 04:18:08;;;;;;;18.03;11.37;;;13.00;99.90;;;;;;5053389;28;20611;-66
2021/09/03 04:20:35;;;;;;;16.13;12.30;;;13.00;99.90;;;;;;5053402;28;20625;-66
2021/09/03 04:23:01;;;;;;;13.23;10.97;;;12.90;99.90;;;;;;5053358;28;20587;-66
2021/09/03 04:25:27;;;;;;;15.10;12.40;;;12.90;99.90;;;;;;5053003;28;21137;-66
2021/09/03 04:27:54;;;;;;;13.83;12.37;;;12.90;99.90;;;;;;5053070;28;20587;-66
2021/09/03 04:30:20;;;;;;;17.70;12.57;;;12.80;99.90;;;;;;5053238;28;20627;-66
2021/09/03 04:32:47;;;;;;;13.67;11.73;;;12.80;99.90;;;;;;5052948;28;20621;-66
2021/09/03 04:35:13;;;;;;;15.43;12.17;;;12.80;99.90;;;;;;5052926;28;20634;-66
2021/09/03 04:37:40;;;;;;;16.60;13.17;;;12.70;99.90;;;;;;5052997;28;20607;-66
2021/09/03 04:40:07;;;;;;;14.38;12.90;;;12.70;99.90;;;;;;5054493;28;20622;-66
2021/09/03 04:42:34;;;;;;;14.37;12.00;;;12.70;99.90;;;;;;5056687;28;20586;-66
2021/09/03 04:45:00;;;;;;;18.00;12.90;;;12.70;99.90;;;;;;5056592;28;20611;-66
2021/09/03 04:47:26;;;;;;;14.70;13.10;;;12.70;99.90;;;;;;5056694;28;20653;-66
2021/09/03 04:49:53;;;;;;;22.77;13.00;;;12.80;99.90;;;;;;5056444;28;20207;-66
2021/09/03 04:52:19;;;;;;;16.83;12.27;;;12.80;99.90;;;;;;5055142;28;20659;-66
2021/09/03 04:54:45;;;;;;;16.83;12.83;;;12.90;99.90;;;;;;5056703;28;20983;-66
2021/09/03 04:57:11;;;;;;;17.87;12.40;;;12.80;99.90;;;;;;5056028;28;20573;-65
2021/09/03 04:59:38;;;;;;;17.10;12.70;;;12.80;99.90;;;;;;5056193;28;20622;-65
2021/09/03 05:02:04;;;;;;;19.30;12.97;;;12.80;99.90;;;;;;5056156;28;20594;-65
2021/09/03 05:04:30;;;;;;;13.73;12.32;;;12.80;99.90;;;;;;5056276;28;20955;-65
2021/09/03 05:06:57;;;;;;;15.77;12.80;;;12.70;99.90;;;;;;5056059;28;20205;-65
2021/09/03 05:09:23;;;;;;;17.95;14.70;;;12.80;99.90;;;;;;5056555;28;20629;-65
2021/09/03 05:11:49;;;;;;;19.03;14.60;;;12.80;99.90;;;;;;5056088;28;20220;-65
2021/09/03 05:14:16;;;;;;;17.10;13.10;;;12.80;99.90;;;;;;5056038;28;20642;-65
2021/09/03 05:16:42;;;;;;;16.27;14.00;;;12.80;99.90;;;;;;5056099;28;20625;-65
2021/09/03 05:19:08;;;;;;;16.33;12.80;;;12.90;99.90;;;;;;5055745;28;20618;-66
2021/09/03 05:21:35;;;;;;;16.50;13.57;;;12.90;99.90;;;;;;5055835;28;20613;-66
2021/09/03 05:24:03;;;;;;;15.60;13.43;;;12.90;99.90;;;;;;5054574;28;21259;-66
2021/09/03 05:26:30;;;;;;;19.03;14.13;;;13.00;99.90;;;;;;5055444;28;20225;-66
2021/09/03 05:28:57;;;;;;;26.23;13.13;;;13.00;99.90;;;;;;5055711;28;21148;-66
2021/09/03 05:31:23;;;;;;;15.93;14.17;;;13.10;99.90;;;;;;5055995;28;21217;-66
2021/09/03 05:33:49;;;;;;;22.27;15.77;;;13.20;99.90;;;;;;5055651;28;20611;-66
2021/09/03 05:36:16;;;;;;;17.33;13.97;;;13.20;99.90;;;;;;5055478;28;20618;-66
2021/09/03 05:38:42;;;;;;;17.37;13.07;;;13.30;99.90;;;;;;5055593;28;20607;-66
2021/09/03 05:41:10;;;;;;;15.20;12.17;;;13.40;99.90;;;;;;5055001;28;20607;-66
2021/09/03 05:43:36;;;;;;;18.27;13.37;;;13.40;99.90;;;;;;5055657;28;20627;-66
2021/09/03 05:46:05;;;;;;;17.03;11.47;;;13.50;99.90;;;;;;5055107;28;20672;-66
2021/09/03 05:48:31;;;;;;;22.53;12.77;;;13.60;99.90;;;;;;5055175;28;20623;-66
2021/09/03 05:50:58;;;;;;;17.70;11.77;;;13.70;99.90;;;;;;5055124;28;21004;-66
2021/09/03 05:53:24;;;;;;;17.73;12.97;;;13.80;99.90;;;;;;5055678;28;20645;-66
2021/09/03 05:55:50;;;;;;;13.23;11.87;;;13.90;99.90;;;;;;5055145;28;20606;-66
2021/09/03 05:58:17;;;;;;;15.80;12.77;;;14.00;99.90;;;;;;5055110;28;20960;-66
2021/09/03 06:00:43;;;;;;;16.10;13.00;;;14.10;99.90;;;;;;5053913;28;20680;-66
2021/09/03 06:03:10;;;;;;;18.33;11.87;;;14.20;99.90;;;;;;5055570;28;20619;-66
2021/09/03 06:05:36;;;;;;;13.83;12.20;;;14.20;99.90;;;;;;5055446;28;20672;-66
2021/09/03 06:08:02;;;;;;;17.73;12.43;;;14.30;99.90;;;;;;5053970;28;20598;-66
2021/09/03 06:10:29;;;;;;;15.03;12.70;;;14.30;99.90;;;;;;5054769;28;20951;-66
2021/09/03 06:12:56;;;;;;;14.30;12.80;;;14.30;99.90;;;;;;5054963;28;20623;-64
2021/09/03 06:15:23;;;;;;;19.30;12.97;;;14.40;99.90;;;;;;5055004;28;21155;-65
2021/09/03 06:17:49;;;;;;;15.63;13.27;;;14.40;99.90;;;;;;5054881;28;20591;-65
2021/09/03 06:20:15;;;;;;;18.53;13.03;;;14.40;99.90;;;;;;5054516;28;20672;-66
2021/09/03 06:22:42;;;;;;;14.17;12.53;;;14.50;99.90;;;;;;5054975;28;20599;-66
2021/09/03 06:25:09;;;;;;;13.97;11.60;;;14.60;99.90;;;;;;5053731;28;20619;-66
2021/09/03 06:27:35;;;;;;;13.87;11.07;;;14.60;99.90;;;;;;5055007;28;21137;-66
2021/09/03 06:30:04;;;;;;;17.10;11.90;;;14.80;99.90;;;;;;5054679;28;21157;-66
2021/09/03 06:32:30;;;;;;;15.70;11.70;;;14.80;99.90;;;;;;5054610;28;20630;-66
2021/09/03 06:35:02;;;;;;;12.70;11.40;;;14.90;99.90;;;;;;5054109;28;20614;-66
2021/09/03 06:37:30;;;;;;;12.50;11.10;;;15.00;99.90;;;;;;5054634;28;20985;-67
2021/09/03 06:39:58;;;;;;;11.67;10.40;;;15.00;99.90;;;;;;5054329;28;20612;-65
2021/09/03 06:42:25;;;;;;;14.20;11.37;;;15.10;99.90;;;;;;5054210;28;20659;-65
2021/09/03 06:44:51;;;;;;;16.07;12.30;;;15.20;99.90;;;;;;5054369;28;20597;-64
2021/09/03 06:47:19;;;;;;;15.93;10.57;;;15.30;99.90;;;;;;5053275;28;21077;-64
2021/09/03 06:49:46;;;;;;;17.90;10.60;;;15.40;99.90;;;;;;5053141;28;20619;-65
2021/09/03 06:52:13;;;;;;;11.07;9.20;;;15.50;99.90;;;;;;5054685;28;21007;-64
2021/09/03 06:54:44;;;;;;;15.90;10.00;;;15.60;99.90;;;;;;5053934;28;20609;-64
2021/09/03 06:57:10;;;;;;;13.27;10.50;;;15.70;99.90;;;;;;5054500;28;20593;-64
2021/09/03 06:59:36;;;;;;;10.13;9.03;;;15.80;99.90;;;;;;5054430;28;20598;-64
2021/09/03 07:02:03;;;;;;;20.53;9.13;;;15.80;99.90;;;;;;5053812;28;20702;-64
2021/09/03 07:04:29;;;;;;;10.23;9.20;;;16.00;99.90;;;;;;5054180;28;20641;-66
2021/09/03 07:06:55;;;;;;;16.43;9.53;;;16.10;99.90;;;;;;5054027;28;20622;-65
2021/09/03 07:09:22;;;;;;;10.10;9.10;;;16.20;99.90;;;;;;5052658;28;20627;-65
2021/09/03 07:11:48;;;;;;;13.40;10.30;;;16.30;99.90;;;;;;5053555;28;20985;-65
2021/09/03 07:14:15;;;;;;;10.53;9.10;;;16.30;99.90;;;;;;5054422;28;20615;-65
2021/09/03 07:16:41;;;;;;;13.37;10.83;;;16.40;99.90;;;;;;5053904;28;20603;-66
2021/09/03 07:19:07;;;;;;;13.60;9.50;;;16.50;99.90;;;;;;5054021;28;20633;-65
2021/09/03 07:21:34;;;;;;;11.53;10.10;;;16.60;99.90;;;;;;5053634;28;20610;-66
2021/09/03 07:24:01;;;;;;;10.80;9.70;;;16.80;99.90;;;;;;5054203;28;20619;-66
2021/09/03 07:26:28;;;;;;;13.70;9.67;;;16.70;99.90;;;;;;5054031;28;21125;-66
2021/09/03 07:28:55;;;;;;;12.63;8.67;;;16.80;99.90;;;;;;5053253;28;20651;-66
2021/09/03 07:31:21;;;;;;;12.77;9.77;;;16.90;99.90;;;;;;5053501;28;21200;-66
2021/09/03 07:33:48;;;;;;;12.20;8.13;;;17.20;99.90;;;;;;5054002;28;20621;-66
2021/09/03 07:36:14;;;;;;;11.20;9.93;;;17.10;99.90;;;;;;5053252;28;20611;-66
2021/09/03 07:38:41;;;;;;;11.70;8.70;;;17.20;99.90;;;;;;5053348;28;20682;-66
2021/09/03 07:41:07;;;;;;;12.40;8.40;;;17.20;99.90;;;;;;5053493;28;21167;-65
2021/09/03 07:43:34;;;;;;;9.80;8.87;;;17.40;99.90;;;;;;5053698;28;20590;-65
2021/09/03 07:46:00;;;;;;;10.70;8.20;;;17.60;99.90;;;;;;5054006;28;20622;-64
2021/09/03 07:48:26;;;;;;;11.53;9.50;;;17.80;99.90;;;;;;5053193;28;20635;-66
2021/09/03 07:50:53;;;;;;;14.03;8.67;;;17.80;99.90;;;;;;5053377;28;20599;-65
2021/09/03 07:53:19;;;;;;;15.43;10.17;;;17.80;99.90;;;;;;5053234;28;20948;-65
2021/09/03 07:55:46;;;;;;;13.90;9.93;;;18.00;99.90;;;;;;5053529;28;21167;-65
2021/09/03 07:58:12;;;;;;;8.93;8.13;;;17.80;99.90;;;;;;5053339;28;21148;-65
2021/09/03 08:00:39;;;;;;;8.80;7.90;;;17.90;99.90;;;;;;5051524;28;20669;-64
2021/09/03 08:03:05;;;;;;;7.90;6.70;;;18.00;99.90;;;;;;5052216;28;20634;-65
2021/09/03 08:05:31;;;;;;;15.73;7.23;;;18.30;99.90;;;;;;5047886;28;20619;-65
2021/09/03 08:07:58;;;;;;;8.57;6.63;;;18.70;99.90;;;;;;5052467;28;20627;-65
2021/09/03 08:10:26;;;;;;;8.83;7.50;;;18.50;99.90;;;;;;5052872;28;20626;-65
2021/09/03 08:12:52;;;;;;;10.00;7.17;;;18.70;99.90;;;;;;5052609;28;20646;-65
2021/09/03 08:15:21;;;;;;;7.73;6.60;;;18.80;99.90;;;;;;5054625;28;20622;-66
2021/09/03 08:17:48;;;;;;;8.40;7.60;;;18.80;99.90;;;;;;5056613;28;20627;-65
2021/09/03 08:20:25;;;;;;;8.83;8.03;;;18.60;99.90;;;;;;5056324;28;20635;-66
2021/09/03 08:22:52;;;;;;;9.73;7.17;;;18.80;99.90;;;;;;5055180;28;20646;-66
2021/09/03 08:25:19;;;;;;;8.63;7.63;;;18.80;99.90;;;;;;5056324;28;20622;-66
2021/09/03 08:27:47;;;;;;;8.13;7.33;;;18.90;99.90;;;;;;5056185;28;21177;-66
2021/09/03 08:30:14;;;;;;;8.23;7.43;;;18.90;99.90;;;;;;5056808;28;20619;-66
2021/09/03 08:32:41;;;;;;;11.93;7.17;;;19.10;99.90;;;;;;5055972;28;20666;-66
2021/09/03 08:35:07;;;;;;;8.23;7.33;;;19.10;99.90;;;;;;5056066;28;20625;-66
2021/09/03 08:37:34;;;;;;;8.73;7.83;;;19.00;99.90;;;;;;5056443;28;21176;-65
2021/09/03 08:40:01;;;;;;;7.40;6.70;;;19.10;99.90;;;;;;5056005;28;20619;-65
2021/09/03 08:42:30;;;;;;;8.50;6.73;;;19.50;99.90;;;;;;5056028;28;21013;-65
2021/09/03 08:44:57;;;;;;;11.90;6.80;;;19.50;95.10;;;;;;5055738;28;20615;-64
2021/09/03 08:47:23;;;;;;;7.77;7.07;;;19.60;99.90;;;;;;5056160;28;20650;-65
2021/09/03 08:49:53;;;;;;;8.63;7.07;;;19.80;96.30;;;;;;5056387;28;20634;-65
2021/09/03 08:52:19;;;;;;;9.90;7.53;;;19.80;83.00;;;;;;5056359;28;20746;-66
2021/09/03 08:54:46;;;;;;;8.83;7.57;;;19.60;78.50;;;;;;5056599;28;21161;-66
2021/09/03 08:57:13;;;;;;;8.67;6.00;;;19.80;38.30;;;;;;5055908;28;20615;-66
2021/09/03 08:59:40;;;;;;;8.03;6.40;;;20.00;1.00;;;;;;5056327;28;20629;-66
2021/09/03 09:02:17;;;;;;;7.63;6.40;;;20.20;1.00;;;;;;5055621;28;20615;-66
2021/09/03 09:04:46;;;;;;;7.30;6.60;;;20.00;1.00;;;;;;5055965;28;20727;-67
2021/09/03 09:07:13;;;;;;;7.83;6.53;;;20.10;1.00;;;;;;5055565;28;20622;-66
2021/09/03 09:09:41;;;;;;;9.33;6.73;;;20.30;10.80;;;;;;5055755;28;20627;-66
2021/09/03 09:12:13;;;;;;;7.00;6.30;;;20.20;4.40;;;;;;5054394;28;20671;-66
2021/09/03 09:15:19;;;;;;;9.70;5.97;;;20.10;12.90;;;;;;5055560;28;20619;-66
2021/09/03 09:17:45;;;;;;;7.67;6.27;;;20.30;13.50;;;;;;5033397;28;21084;-66
2021/09/03 09:20:15;;;;;;;7.50;6.20;;;20.50;29.00;;;;;;5033223;28;21263;-66
2021/09/03 09:23:04;;;;;;;7.23;6.53;;;20.60;24.60;;;;;;5039133;28;20623;-66
2021/09/03 09:25:33;;;;;;;6.00;5.47;;;20.90;32.20;;;;;;5054771;28;20579;-66
2021/09/03 09:28:22;;;;;;;7.80;6.47;;;20.80;23.10;;;;;;5055117;28;20769;-66
2021/09/03 09:30:49;;;;;;;10.10;6.63;;;21.10;32.00;;;;;;5055004;28;20571;-66
2021/09/03 09:33:18;;;;;;;7.13;6.37;;;21.20;51.60;;;;;;5055145;28;20658;-65
2021/09/03 09:35:49;;;;;;;8.53;6.57;;;21.10;29.30;;;;;;5055899;28;20622;-66
2021/09/03 09:38:24;;;;;;;7.17;6.20;;;21.40;47.10;;;;;;5055818;28;20626;-66
2021/09/03 09:40:58;;;;;;;7.43;5.70;;;21.30;42.40;;;;;;5055488;28;20557;-66
2021/09/03 09:43:29;;;;;;;7.73;6.40;;;21.30;48.20;;;;;;5055603;28;20662;-67
2021/09/03 09:46:10;;;;;;;7.10;6.40;;;21.30;56.40;;;;;;5055744;28;20583;-66
2021/09/03 09:48:52;;;;;;;7.07;5.83;;;21.40;63.10;;;;;;5054694;28;20654;-66
2021/09/03 09:51:34;;;;;;;6.70;6.03;;;21.50;94.10;;;;;;5055458;28;20634;-65
2021/09/03 09:54:08;;;;;;;7.73;7.03;;;21.80;99.90;;;;;;5055332;28;20559;-65
2021/09/03 09:56:42;;;;;;;6.87;6.27;;;21.40;99.90;;;;;;5055161;28;20627;-65
2021/09/03 09:59:10;;;;;;;7.37;5.93;;;21.50;99.90;;;;;;5054911;28;20615;-65
2021/09/03 10:01:38;;;;;;;6.47;5.87;;;21.50;99.90;;;;;;5055521;28;20730;-65
2021/09/03 10:04:26;;;;;;;6.77;6.10;;;21.60;99.90;;;;;;5054978;28;20619;-65
2021/09/03 10:06:57;;;;;;;7.43;6.10;;;21.90;99.90;;;;;;5055292;28;20601;-65
2021/09/03 10:09:25;;;;;;;7.00;6.27;;;22.10;99.90;;;;;;5055222;28;20623;-65
2021/09/03 10:11:54;;;;;;;5.87;5.37;;;22.10;99.90;;;;;;5055310;28;21243;-65
2021/09/03 10:14:26;;;;;;;6.73;5.80;;;22.30;99.90;;;;;;5048445;28;20723;-65
2021/09/03 10:16:54;;;;;;;10.00;5.93;;;22.50;99.90;;;;;;5064993;28;20978;-65
2021/09/03 10:19:26;;;;;;;6.57;5.47;;;22.20;99.90;;;;;;5074571;28;20717;-65
2021/09/03 10:22:05;;;;;;;7.57;6.43;;;22.20;99.90;;;;;;5040441;28;20626;-64
2021/09/03 10:24:31;;;;;;;7.17;5.73;;;22.40;99.90;;;;;;5054550;28;20590;-64
2021/09/03 10:26:59;;;;;;;7.63;6.37;;;22.30;99.90;;;;;;5040485;28;20629;-64
2021/09/03 10:29:35;;;;;;;11.00;6.10;;;22.50;99.90;;;;;;5053968;28;20626;-64
2021/09/03 10:32:07;;;;;;;6.37;5.80;;;22.70;99.90;;;;;;5054132;28;20662;-64
2021/09/03 10:34:40;;;;;;;8.90;5.83;;;22.80;99.90;;;;;;5053832;28;20623;-64
2021/09/03 10:37:15;;;;;;;6.00;5.40;;;22.80;99.90;;;;;;5064270;28;20632;-64
2021/09/03 10:39:48;;;;;;;6.10;5.50;;;23.30;99.90;;;;;;5073780;28;21036;-64
2021/09/03 10:42:37;;;;;;;7.00;6.40;;;23.70;99.90;;;;;;5072342;28;20658;-64
2021/09/03 10:45:10;;;;;;;6.13;5.53;;;23.20;99.90;;;;;;5048280;28;20586;-65
2021/09/03 10:47:40;;;;;;;7.93;6.20;;;23.40;99.90;;;;;;5074029;28;20723;-65
2021/09/03 10:50:16;;;;;;;6.20;5.60;;;23.70;99.90;;;;;;5057215;28;20627;-65
2021/09/03 10:53:19;;;;;;;6.83;6.33;;;23.80;99.90;;;;;;5053525;28;21205;-65
2021/09/03 10:56:06;;;;;;;10.80;6.57;;;23.60;99.90;;;;;;5031224;28;20646;-66
2021/09/03 10:58:49;;;;;;;6.23;5.70;;;23.80;99.90;;;;;;5048462;28;20718;-66
2021/09/03 11:01:15;;;;;;;6.57;5.80;;;24.10;99.90;;;;;;5053815;28;20996;-66
2021/09/03 11:03:49;;;;;;;6.13;5.63;;;23.70;99.90;;;;;;5053014;28;20622;-66
2021/09/03 11:06:25;;;;;;;7.27;6.50;;;23.70;99.90;;;;;;5053152;28;20583;-66
2021/09/03 11:09:05;;;;;;;6.37;5.70;;;24.20;99.90;;;;;;5053353;28;20630;-66
2021/09/03 11:11:37;;;;;;;7.00;6.30;;;24.80;99.90;;;;;;5053281;28;21215;-66
2021/09/03 11:14:29;;;;;;;7.23;5.73;;;25.50;99.90;;;;;;5039181;28;20619;-66
2021/09/03 11:17:01;;;;;;;7.37;6.67;;;26.10;99.90;;;;;;5052852;28;20970;-66
2021/09/03 11:19:32;;;;;;;6.23;5.73;;;25.70;99.90;;;;;;5052037;28;20630;-67
2021/09/03 11:22:10;;;;;;;5.40;5.00;;;25.20;99.90;;;;;;5070281;28;20626;-65
2021/09/03 11:24:41;;;;;;;8.80;5.80;;;25.40;99.90;;;;;;5073388;28;20622;-66
2021/09/03 11:27:15;;;;;;;6.10;5.60;;;26.40;99.90;;;;;;5073223;28;20614;-67
2021/09/03 11:29:45;;;;;;;6.17;5.67;;;25.70;99.90;;;;;;5073462;28;20606;-66
2021/09/03 11:32:20;;;;;;;6.60;6.10;;;26.50;99.90;;;;;;5072886;28;20665;-66
2021/09/03 11:34:54;;;;;;;6.80;6.23;;;26.00;99.90;;;;;;5073343;28;20605;-66
2021/09/03 11:37:27;;;;;;;5.97;5.47;;;26.20;99.90;;;;;;5072959;28;20622;-67
2021/09/03 11:39:56;;;;;;;6.60;6.10;;;26.90;99.90;;;;;;5073801;28;21078;-66
2021/09/03 11:42:28;;;;;;;5.97;5.47;;;28.00;99.90;;;;;;5071683;28;20661;-68
2021/09/03 11:44:58;;;;;;;7.27;6.67;;;27.70;99.90;;;;;;5073731;28;20622;-66
2021/09/03 11:47:35;;;;;;;6.97;6.47;;;26.60;99.90;;;;;;5073269;28;21300;-66
2021/09/03 11:50:05;;;;;;;5.97;5.47;;;26.90;99.90;;;;;;5073289;28;20630;-66
2021/09/03 11:52:32;;;;;;;6.43;5.93;;;27.30;99.90;;;;;;5059604;28;20663;-65
2021/09/03 11:54:59;;;;;;;14.20;9.60;;;27.90;99.90;;;;;;5059202;28;20611;-66
2021/09/03 11:57:27;;;;;;;6.60;6.00;;;27.60;99.90;;;;;;5038408;28;20731;-66
2021/09/03 11:59:56;;;;;;;8.57;6.10;;;28.40;99.90;;;;;;5056388;28;20619;-67
2021/09/03 12:02:25;;;;;;;5.73;5.30;;;28.30;99.90;;;;;;5059121;28;21149;-66
2021/09/03 12:04:53;;;;;;;7.13;6.30;;;27.30;99.90;;;;;;5059465;28;20641;-65
2021/09/03 12:07:21;;;;;;;5.90;5.50;;;27.10;99.90;;;;;;5059798;28;20680;-65
2021/09/03 12:09:48;;;;;;;6.40;5.80;;;27.40;99.90;;;;;;5059040;28;20627;-66
2021/09/03 12:12:25;;;;;;;8.63;5.10;;;27.50;99.90;;;;;;5059232;28;20665;-67
2021/09/03 12:14:59;;;;;;;6.90;5.47;;;28.30;99.90;;;;;;5059109;28;20591;-67
2021/09/03 12:17:42;;;;;;;6.70;6.20;;;28.60;99.90;;;;;;5059488;28;20587;-67
2021/09/03 12:20:16;;;;;;;5.73;5.33;;;28.70;99.90;;;;;;5059549;28;20761;-67
2021/09/03 12:22:56;;;;;;;6.80;6.20;;;28.90;99.90;;;;;;5059852;28;20711;-67
2021/09/03 12:25:33;;;;;;;6.50;5.90;;;29.00;99.90;;;;;;5059523;28;20713;-67
2021/09/03 12:28:10;;;;;;;5.97;5.47;;;29.30;99.90;;;;;;5059197;28;20632;-67
2021/09/03 12:30:38;;;;;;;6.03;5.43;;;28.70;99.90;;;;;;5058979;28;20622;-67
2021/09/03 12:33:28;;;;;;;6.73;5.27;;;28.60;99.90;;;;;;5059126;28;20669;-67
2021/09/03 12:36:02;;;;;;;6.30;5.80;;;28.90;99.90;;;;;;5058139;28;20639;-67
2021/09/03 12:38:31;;;;;;;7.07;6.47;;;28.40;99.90;;;;;;5049262;28;20702;-67
2021/09/03 12:41:05;;;;;;;6.77;6.30;;;29.10;99.90;;;;;;5040403;28;20600;-67
2021/09/03 12:43:31;;;;;;;6.30;5.80;;;29.50;99.90;;;;;;5039819;28;21241;-66